sensor_id;sensor_type;location;lat;lon;timestamp;pressure;altitude;pressure_sealevel;temperature;humidity
5284;BME280;15377;48.540;9.268;2023-04-09T00:00:32;98092.59;;;6.10;100.00
5284;BME280;15377;48.540;9.268;2023-04-09T00:02:58;98091.41;;;6.11;100.00
5284;BME280;15377;48.540;9.268;2023-04-09T00:05:23;98086.75;;;6.08;100.00
5284;BME280;15377;48.540;9.268;2023-04-09T00:07:48;98088.31;;;6.09;100.00
5284;BME280;15377;48.540;9.268;2023-04-09T00:10:14;98084.56;;;6.19;100.00
5284;BME280;15377;48.540;9.268;2023-04-09T00:12:42;98094.22;;;6.23;100.00
5284;BME280;15377;48.540;9.268;2023-04-09T00:15:07;98084.13;;;6.20;100.00
5284;BME280;15377;48.540;9.268;2023-04-09T00:17:33;98077.66;;;6.14;100.00
5284;BME280;15377;48.540;9.268;2023-04-09T00:19:58;98093.28;;;6.14;100.00
5284;BME280;15377;48.540;9.268;2023-04-09T00:22:24;98083.69;;;6.06;100.00
5284;BME280;15377;48.540;9.268;2023-04-09T00:24:49;98086.44;;;6.06;100.00
5284;BME280;15377;48.540;9.268;2023-04-09T00:27:15;98074.91;;;5.98;100.00
5284;BME280;15377;48.540;9.268;2023-04-09T00:29:40;98084.72;;;6.12;100.00
5284;BME280;15377;48.540;9.268;2023-04-09T00:32:06;98090.94;;;6.12;100.00
5284;BME280;15377;48.540;9.268;2023-04-09T00:34:31;98088.31;;;6.09;100.00
5284;BME280;15377;48.540;9.268;2023-04-09T00:36:57;98085.72;;;6.02;100.00
5284;BME280;15377;48.540;9.268;2023-04-09T00:39:22;98085.72;;;6.02;100.00
5284;BME280;15377;48.540;9.268;2023-04-09T00:41:47;98080.63;;;6.04;100.00
5284;BME280;15377;48.540;9.268;2023-04-09T00:44:12;98053.09;;;5.79;100.00
5284;BME280;15377;48.540;9.268;2023-04-09T00:46:38;98084.34;;;5.94;100.00
5284;BME280;15377;48.540;9.268;2023-04-09T00:49:04;98077.19;;;6.00;100.00
5284;BME280;15377;48.540;9.268;2023-04-09T00:51:29;98083.34;;;6.04;100.00
5284;BME280;15377;48.540;9.268;2023-04-09T00:53:55;98083.00;;;6.02;100.00
5284;BME280;15377;48.540;9.268;2023-04-09T00:56:22;98088.75;;;6.07;100.00
5284;BME280;15377;48.540;9.268;2023-04-09T00:58:48;98080.09;;;6.09;100.00
5284;BME280;15377;48.540;9.268;2023-04-09T01:01:13;98077.81;;;6.07;100.00
5284;BME280;15377;48.540;9.268;2023-04-09T01:03:38;98070.63;;;5.97;100.00
5284;BME280;15377;48.540;9.268;2023-04-09T01:06:11;98079.59;;;5.98;100.00
5284;BME280;15377;48.540;9.268;2023-04-09T01:11:31;98081.28;;;5.92;100.00
5284;BME280;15377;48.540;9.268;2023-04-09T01:14:36;98074.44;;;5.84;100.00
5284;BME280;15377;48.540;9.268;2023-04-09T01:17:19;98071.16;;;5.73;100.00
5284;BME280;15377;48.540;9.268;2023-04-09T01:20:08;98077.09;;;5.68;100.00
5284;BME280;15377;48.540;9.268;2023-04-09T01:25:55;98070.59;;;5.81;100.00
5284;BME280;15377;48.540;9.268;2023-04-09T01:30:57;98063.78;;;5.70;100.00
5284;BME280;15377;48.540;9.268;2023-04-09T01:33:24;98070.44;;;5.69;100.00
5284;BME280;15377;48.540;9.268;2023-04-09T01:35:50;98072.66;;;5.58;100.00
5284;BME280;15377;48.540;9.268;2023-04-09T01:38:18;98067.19;;;5.58;100.00
5284;BME280;15377;48.540;9.268;2023-04-09T01:40:45;98072.84;;;5.67;100.00
5284;BME280;15377;48.540;9.268;2023-04-09T01:43:11;98080.69;;;5.65;100.00
5284;BME280;15377;48.540;9.268;2023-04-09T01:45:38;98062.94;;;5.37;100.00
5284;BME280;15377;48.540;9.268;2023-04-09T01:48:05;98070.13;;;5.47;100.00
5284;BME280;15377;48.540;9.268;2023-04-09T01:50:31;98069.16;;;5.38;100.00
5284;BME280;15377;48.540;9.268;2023-04-09T01:52:57;98085.47;;;5.41;100.00
5284;BME280;15377;48.540;9.268;2023-04-09T01:55:22;98082.66;;;5.45;100.00
5284;BME280;15377;48.540;9.268;2023-04-09T01:57:47;98089.50;;;5.53;100.00
5284;BME280;15377;48.540;9.268;2023-04-09T02:00:13;98087.84;;;5.59;100.00
5284;BME280;15377;48.540;9.268;2023-04-09T02:02:57;98086.50;;;5.67;100.00
5284;BME280;15377;48.540;9.268;2023-04-09T02:05:24;98076.34;;;5.67;100.00
5284;BME280;15377;48.540;9.268;2023-04-09T02:07:55;98066.53;;;5.70;100.00
5284;BME280;15377;48.540;9.268;2023-04-09T02:10:25;98082.41;;;5.75;100.00
5284;BME280;15377;48.540;9.268;2023-04-09T02:12:52;98073.38;;;5.78;100.00
5284;BME280;15377;48.540;9.268;2023-04-09T02:15:20;98073.81;;;5.76;100.00
5284;BME280;15377;48.540;9.268;2023-04-09T02:17:46;98068.41;;;5.73;100.00
5284;BME280;15377;48.540;9.268;2023-04-09T02:20:16;98070.81;;;5.71;100.00
5284;BME280;15377;48.540;9.268;2023-04-09T02:22:41;98058.84;;;5.65;100.00
5284;BME280;15377;48.540;9.268;2023-04-09T02:25:07;98073.81;;;5.76;100.00
5284;BME280;15377;48.540;9.268;2023-04-09T02:27:32;98072.19;;;5.79;100.00
5284;BME280;15377;48.540;9.268;2023-04-09T02:29:58;98068.16;;;5.87;100.00
5284;BME280;15377;48.540;9.268;2023-04-09T02:32:23;98054.25;;;5.78;100.00
5284;BME280;15377;48.540;9.268;2023-04-09T02:34:48;98055.03;;;5.78;100.00
5284;BME280;15377;48.540;9.268;2023-04-09T02:37:13;98052.25;;;5.82;100.00
5284;BME280;15377;48.540;9.268;2023-04-09T02:39:39;98058.69;;;5.91;100.00
5284;BME280;15377;48.540;9.268;2023-04-09T02:42:04;98057.56;;;5.89;100.00
5284;BME280;15377;48.540;9.268;2023-04-09T02:44:32;98075.00;;;5.95;100.00
5284;BME280;15377;48.540;9.268;2023-04-09T02:46:57;98072.75;;;5.90;100.00
5284;BME280;15377;48.540;9.268;2023-04-09T02:49:22;98067.84;;;5.81;100.00
5284;BME280;15377;48.540;9.268;2023-04-09T02:51:48;98064.50;;;5.74;100.00
5284;BME280;15377;48.540;9.268;2023-04-09T02:54:13;98071.63;;;5.68;100.00
5284;BME280;15377;48.540;9.268;2023-04-09T02:56:39;98069.25;;;5.70;100.00
5284;BME280;15377;48.540;9.268;2023-04-09T02:59:04;98058.50;;;5.63;100.00
5284;BME280;15377;48.540;9.268;2023-04-09T03:01:29;98058.91;;;5.61;100.00
5284;BME280;15377;48.540;9.268;2023-04-09T03:03:55;98058.50;;;5.63;100.00
5284;BME280;15377;48.540;9.268;2023-04-09T03:06:20;98056.31;;;5.74;100.00
5284;BME280;15377;48.540;9.268;2023-04-09T03:08:45;98053.66;;;5.70;100.00
5284;BME280;15377;48.540;9.268;2023-04-09T03:11:11;98048.19;;;5.70;100.00
5284;BME280;15377;48.540;9.268;2023-04-09T03:13:36;98042.97;;;5.60;100.00
5284;BME280;15377;48.540;9.268;2023-04-09T03:16:01;98044.84;;;5.63;100.00
5284;BME280;15377;48.540;9.268;2023-04-09T03:18:27;98051.34;;;5.69;100.00
5284;BME280;15377;48.540;9.268;2023-04-09T03:20:52;98040.41;;;5.69;100.00
5284;BME280;15377;48.540;9.268;2023-04-09T03:23:17;98048.53;;;5.72;100.00
5284;BME280;15377;48.540;9.268;2023-04-09T03:25:43;98046.72;;;5.66;100.00
5284;BME280;15377;48.540;9.268;2023-04-09T03:28:08;98044.06;;;5.62;100.00
5284;BME280;15377;48.540;9.268;2023-04-09T03:30:36;98037.41;;;5.63;100.00
5284;BME280;15377;48.540;9.268;2023-04-09T03:33:01;98042.81;;;5.67;100.00
5284;BME280;15377;48.540;9.268;2023-04-09T03:35:27;98038.28;;;5.60;100.00
5284;BME280;15377;48.540;9.268;2023-04-09T03:37:52;98038.34;;;5.57;100.00
5284;BME280;15377;48.540;9.268;2023-04-09T03:40:17;98040.88;;;5.48;100.00
5284;BME280;15377;48.540;9.268;2023-04-09T03:42:43;98044.81;;;5.47;100.00
5284;BME280;15377;48.540;9.268;2023-04-09T03:45:09;98048.94;;;5.55;100.00
5284;BME280;15377;48.540;9.268;2023-04-09T03:47:34;98045.41;;;5.54;100.00
5284;BME280;15377;48.540;9.268;2023-04-09T03:50:00;98042.63;;;5.58;100.00
5284;BME280;15377;48.540;9.268;2023-04-09T03:52:25;98042.13;;;5.63;100.00
5284;BME280;15377;48.540;9.268;2023-04-09T03:54:50;98050.66;;;5.65;100.00
5284;BME280;15377;48.540;9.268;2023-04-09T03:57:16;98041.50;;;5.55;100.00
5284;BME280;15377;48.540;9.268;2023-04-09T03:59:41;98040.56;;;5.62;100.00
5284;BME280;15377;48.540;9.268;2023-04-09T04:02:06;98039.88;;;5.58;100.00
5284;BME280;15377;48.540;9.268;2023-04-09T04:04:32;98037.78;;;5.46;100.00
5284;BME280;15377;48.540;9.268;2023-04-09T04:06:57;98038.66;;;5.43;100.00
5284;BME280;15377;48.540;9.268;2023-04-09T04:09:22;98033.34;;;5.36;100.00
5284;BME280;15377;48.540;9.268;2023-04-09T04:11:48;98032.66;;;5.32;100.00
5284;BME280;15377;48.540;9.268;2023-04-09T04:14:13;98015.19;;;5.10;100.00
5284;BME280;15377;48.540;9.268;2023-04-09T04:16:40;98048.38;;;5.24;100.00
5284;BME280;15377;48.540;9.268;2023-04-09T04:19:05;98053.09;;;5.24;100.00
5284;BME280;15377;48.540;9.268;2023-04-09T04:21:31;98048.31;;;5.28;100.00
5284;BME280;15377;48.540;9.268;2023-04-09T04:23:56;98047.13;;;5.29;100.00
5284;BME280;15377;48.540;9.268;2023-04-09T04:26:21;98046.91;;;5.20;100.00
5284;BME280;15377;48.540;9.268;2023-04-09T04:28:47;98059.50;;;5.14;100.00
5284;BME280;15377;48.540;9.268;2023-04-09T04:31:12;98059.50;;;5.14;100.00
5284;BME280;15377;48.540;9.268;2023-04-09T04:33:39;98051.41;;;5.10;100.00
5284;BME280;15377;48.540;9.268;2023-04-09T04:36:10;98051.41;;;5.10;100.00
5284;BME280;15377;48.540;9.268;2023-04-09T04:38:36;98055.25;;;5.13;100.00
5284;BME280;15377;48.540;9.268;2023-04-09T04:41:02;98057.50;;;5.18;100.00
5284;BME280;15377;48.540;9.268;2023-04-09T04:43:28;98057.97;;;5.13;100.00
5284;BME280;15377;48.540;9.268;2023-04-09T04:45:54;98064.34;;;5.06;100.00
5284;BME280;15377;48.540;9.268;2023-04-09T04:48:19;98063.22;;;5.04;100.00
5284;BME280;15377;48.540;9.268;2023-04-09T04:50:45;98065.94;;;5.04;100.00
5284;BME280;15377;48.540;9.268;2023-04-09T04:53:10;98058.03;;;5.09;100.00
5284;BME280;15377;48.540;9.268;2023-04-09T04:55:36;98066.38;;;5.22;100.00
5284;BME280;15377;48.540;9.268;2023-04-09T04:58:01;98073.28;;;5.26;100.00
5284;BME280;15377;48.540;9.268;2023-04-09T05:00:27;98077.91;;;5.29;100.00
5284;BME280;15377;48.540;9.268;2023-04-09T05:02:52;98073.22;;;5.30;100.00
5284;BME280;15377;48.540;9.268;2023-04-09T05:05:18;98071.00;;;5.25;100.00
5284;BME280;15377;48.540;9.268;2023-04-09T05:07:43;98072.13;;;5.27;100.00
5284;BME280;15377;48.540;9.268;2023-04-09T05:10:09;98077.84;;;5.33;100.00
5284;BME280;15377;48.540;9.268;2023-04-09T05:12:34;98068.53;;;5.30;100.00
5284;BME280;15377;48.540;9.268;2023-04-09T05:15:00;98079.31;;;5.37;100.00
5284;BME280;15377;48.540;9.268;2023-04-09T05:17:25;98078.53;;;5.37;100.00
5284;BME280;15377;48.540;9.268;2023-04-09T05:19:51;98067.22;;;5.38;100.00
5284;BME280;15377;48.540;9.268;2023-04-09T05:22:17;98072.13;;;5.47;100.00
5284;BME280;15377;48.540;9.268;2023-04-09T05:24:42;98074.31;;;5.52;100.00
5284;BME280;15377;48.540;9.268;2023-04-09T05:27:07;98065.78;;;5.50;100.00
5284;BME280;15377;48.540;9.268;2023-04-09T05:29:33;98073.25;;;5.65;100.00
5284;BME280;15377;48.540;9.268;2023-04-09T05:31:58;98064.50;;;5.74;100.00
5284;BME280;15377;48.540;9.268;2023-04-09T05:34:23;98069.69;;;5.88;100.00
5284;BME280;15377;48.540;9.268;2023-04-09T05:36:49;98068.50;;;6.05;100.00
5284;BME280;15377;48.540;9.268;2023-04-09T05:39:14;98061.44;;;6.23;100.00
5284;BME280;15377;48.540;9.268;2023-04-09T05:41:40;98063.06;;;6.37;100.00
5284;BME280;15377;48.540;9.268;2023-04-09T05:44:06;98075.00;;;6.59;100.00
5284;BME280;15377;48.540;9.268;2023-04-09T05:46:32;98069.25;;;6.69;100.00
5284;BME280;15377;48.540;9.268;2023-04-09T05:48:57;98071.28;;;6.81;100.00
5284;BME280;15377;48.540;9.268;2023-04-09T05:51:22;98066.41;;;6.89;100.00
5284;BME280;15377;48.540;9.268;2023-04-09T05:53:47;98069.91;;;6.89;100.00
5284;BME280;15377;48.540;9.268;2023-04-09T05:56:16;98071.88;;;6.89;100.00
5284;BME280;15377;48.540;9.268;2023-04-09T05:58:41;98060.44;;;6.78;100.00
5284;BME280;15377;48.540;9.268;2023-04-09T06:01:07;98081.25;;;6.88;100.00
5284;BME280;15377;48.540;9.268;2023-04-09T06:03:32;98057.19;;;6.83;100.00
5284;BME280;15377;48.540;9.268;2023-04-09T06:05:58;98074.06;;;6.94;100.00
5284;BME280;15377;48.540;9.268;2023-04-09T06:08:23;98069.28;;;6.98;100.00
5284;BME280;15377;48.540;9.268;2023-04-09T06:10:48;98076.09;;;7.06;100.00
5284;BME280;15377;48.540;9.268;2023-04-09T06:13:14;98079.97;;;7.08;100.00
5284;BME280;15377;48.540;9.268;2023-04-09T06:15:39;98079.72;;;7.15;100.00
5284;BME280;15377;48.540;9.268;2023-04-09T06:18:05;98089.38;;;7.19;100.00
5284;BME280;15377;48.540;9.268;2023-04-09T06:20:30;98087.34;;;7.23;100.00
5284;BME280;15377;48.540;9.268;2023-04-09T06:22:56;98100.59;;;7.25;100.00
5284;BME280;15377;48.540;9.268;2023-04-09T06:25:21;98098.75;;;7.34;100.00
5284;BME280;15377;48.540;9.268;2023-04-09T06:27:46;98090.88;;;7.36;100.00
5284;BME280;15377;48.540;9.268;2023-04-09T06:30:12;98090.28;;;7.57;100.00
5284;BME280;15377;48.540;9.268;2023-04-09T06:32:37;98071.31;;;7.63;100.00
5284;BME280;15377;48.540;9.268;2023-04-09T06:35:03;98103.16;;;7.98;100.00
5284;BME280;15377;48.540;9.268;2023-04-09T06:37:29;98086.09;;;8.06;100.00
5284;BME280;15377;48.540;9.268;2023-04-09T06:39:54;98101.75;;;8.18;100.00
5284;BME280;15377;48.540;9.268;2023-04-09T06:42:19;98108.56;;;8.26;100.00
5284;BME280;15377;48.540;9.268;2023-04-09T06:44:45;98103.75;;;8.43;100.00
5284;BME280;15377;48.540;9.268;2023-04-09T06:47:10;98114.25;;;8.69;100.00
5284;BME280;15377;48.540;9.268;2023-04-09T06:49:36;98109.81;;;8.84;100.00
5284;BME280;15377;48.540;9.268;2023-04-09T06:52:02;98105.09;;;8.85;100.00
5284;BME280;15377;48.540;9.268;2023-04-09T06:54:28;98109.34;;;8.98;100.00
5284;BME280;15377;48.540;9.268;2023-04-09T06:56:53;98117.94;;;9.22;100.00
5284;BME280;15377;48.540;9.268;2023-04-09T06:59:18;98119.47;;;9.23;100.00
5284;BME280;15377;48.540;9.268;2023-04-09T07:01:44;98117.41;;;9.14;100.00
5284;BME280;15377;48.540;9.268;2023-04-09T07:04:10;98123.94;;;9.29;100.00
5284;BME280;15377;48.540;9.268;2023-04-09T07:06:35;98107.47;;;9.29;100.00
5284;BME280;15377;48.540;9.268;2023-04-09T07:09:00;98111.44;;;9.28;100.00
5284;BME280;15377;48.540;9.268;2023-04-09T07:11:26;98113.88;;;9.26;100.00
5284;BME280;15377;48.540;9.268;2023-04-09T07:13:51;98112.69;;;9.15;100.00
5284;BME280;15377;48.540;9.268;2023-04-09T07:16:16;98111.03;;;9.17;100.00
5284;BME280;15377;48.540;9.268;2023-04-09T07:18:42;98110.81;;;9.12;100.00
5284;BME280;15377;48.540;9.268;2023-04-09T07:21:07;98110.38;;;9.13;100.00
5284;BME280;15377;48.540;9.268;2023-04-09T07:23:33;98123.94;;;9.29;100.00
5284;BME280;15377;48.540;9.268;2023-04-09T07:26:02;98120.88;;;9.27;100.00
5284;BME280;15377;48.540;9.268;2023-04-09T07:28:27;98127.91;;;9.28;100.00
5284;BME280;15377;48.540;9.268;2023-04-09T07:30:52;98127.00;;;9.31;100.00
5284;BME280;15377;48.540;9.268;2023-04-09T07:33:18;98123.25;;;9.38;100.00
5284;BME280;15377;48.540;9.268;2023-04-09T07:35:43;98119.25;;;9.51;100.00
5284;BME280;15377;48.540;9.268;2023-04-09T07:38:08;98125.34;;;9.55;100.00
5284;BME280;15377;48.540;9.268;2023-04-09T07:40:34;98131.69;;;9.43;100.00
5284;BME280;15377;48.540;9.268;2023-04-09T07:43:01;98121.41;;;9.56;100.00
5284;BME280;15377;48.540;9.268;2023-04-09T07:45:26;98134.19;;;9.72;100.00
5284;BME280;15377;48.540;9.268;2023-04-09T07:47:54;98141.59;;;9.62;100.00
5284;BME280;15377;48.540;9.268;2023-04-09T07:50:20;98140.19;;;9.36;100.00
5284;BME280;15377;48.540;9.268;2023-04-09T07:52:45;98136.06;;;9.19;100.00
5284;BME280;15377;48.540;9.268;2023-04-09T07:55:11;98140.78;;;9.19;100.00
5284;BME280;15377;48.540;9.268;2023-04-09T07:57:37;98143.47;;;9.31;100.00
5284;BME280;15377;48.540;9.268;2023-04-09T08:00:03;98156.41;;;9.43;100.00
5284;BME280;15377;48.540;9.268;2023-04-09T08:02:28;98147.50;;;9.73;100.00
5284;BME280;15377;48.540;9.268;2023-04-09T08:04:54;98146.06;;;10.12;100.00
5284;BME280;15377;48.540;9.268;2023-04-09T08:07:20;98146.34;;;10.35;100.00
5284;BME280;15377;48.540;9.268;2023-04-09T08:09:45;98140.53;;;10.42;100.00
5284;BME280;15377;48.540;9.268;2023-04-09T08:12:11;98135.38;;;10.44;100.00
5284;BME280;15377;48.540;9.268;2023-04-09T08:14:36;98135.81;;;10.43;100.00
5284;BME280;15377;48.540;9.268;2023-04-09T08:17:03;98132.28;;;10.82;100.00
5284;BME280;15377;48.540;9.268;2023-04-09T08:19:28;98132.50;;;11.50;100.00
5284;BME280;15377;48.540;9.268;2023-04-09T08:21:54;98150.75;;;12.34;100.00
5284;BME280;15377;48.540;9.268;2023-04-09T08:24:19;98140.66;;;12.63;100.00
5284;BME280;15377;48.540;9.268;2023-04-09T08:26:45;98146.72;;;13.09;100.00
5284;BME280;15377;48.540;9.268;2023-04-09T08:29:11;98152.00;;;13.21;100.00
5284;BME280;15377;48.540;9.268;2023-04-09T08:31:37;98159.88;;;12.90;96.20
5284;BME280;15377;48.540;9.268;2023-04-09T08:34:04;98161.41;;;12.59;95.87
5284;BME280;15377;48.540;9.268;2023-04-09T08:36:31;98161.63;;;12.37;96.80
5284;BME280;15377;48.540;9.268;2023-04-09T08:38:58;98156.19;;;12.19;96.92
5284;BME280;15377;48.540;9.268;2023-04-09T08:41:26;98159.09;;;12.07;94.04
5284;BME280;15377;48.540;9.268;2023-04-09T08:43:54;98156.69;;;11.82;93.97
5284;BME280;15377;48.540;9.268;2023-04-09T08:46:21;98162.97;;;11.91;96.08
5284;BME280;15377;48.540;9.268;2023-04-09T08:48:50;98162.19;;;12.00;94.16
5284;BME280;15377;48.540;9.268;2023-04-09T08:51:19;98164.78;;;12.03;91.67
5284;BME280;15377;48.540;9.268;2023-04-09T08:53:56;98168.00;;;12.02;91.93
5284;BME280;15377;48.540;9.268;2023-04-09T08:56:22;98169.25;;;12.01;87.03
5284;BME280;15377;48.540;9.268;2023-04-09T08:58:48;98166.44;;;12.19;89.15
5284;BME280;15377;48.540;9.268;2023-04-09T09:01:18;98164.56;;;12.34;86.13
5284;BME280;15377;48.540;9.268;2023-04-09T09:03:58;98156.53;;;12.45;86.08
5284;BME280;15377;48.540;9.268;2023-04-09T09:06:27;98167.88;;;12.56;85.09
5284;BME280;15377;48.540;9.268;2023-04-09T09:09:13;98177.28;;;12.73;81.42
5284;BME280;15377;48.540;9.268;2023-04-09T09:11:46;98172.00;;;12.84;78.08
5284;BME280;15377;48.540;9.268;2023-04-09T09:14:17;98176.19;;;12.38;80.39
5284;BME280;15377;48.540;9.268;2023-04-09T09:17:03;98171.63;;;12.26;83.33
5284;BME280;15377;48.540;9.268;2023-04-09T09:19:31;98176.88;;;12.06;81.81
5284;BME280;15377;48.540;9.268;2023-04-09T09:22:05;98187.75;;;12.09;82.70
5284;BME280;15377;48.540;9.268;2023-04-09T09:24:31;98176.22;;;12.29;83.46
5284;BME280;15377;48.540;9.268;2023-04-09T09:26:58;98175.31;;;12.23;83.29
5284;BME280;15377;48.540;9.268;2023-04-09T09:29:24;98183.25;;;12.30;82.54
5284;BME280;15377;48.540;9.268;2023-04-09T09:31:51;98183.44;;;12.26;82.70
5284;BME280;15377;48.540;9.268;2023-04-09T09:34:17;98183.00;;;12.19;84.29
5284;BME280;15377;48.540;9.268;2023-04-09T09:36:44;98194.06;;;12.01;86.31
5284;BME280;15377;48.540;9.268;2023-04-09T09:39:11;98192.25;;;11.80;85.92
5284;BME280;15377;48.540;9.268;2023-04-09T09:41:40;98188.88;;;11.58;87.27
5284;BME280;15377;48.540;9.268;2023-04-09T09:44:07;98194.56;;;11.72;88.54
5284;BME280;15377;48.540;9.268;2023-04-09T09:46:34;98187.66;;;11.77;89.96
5284;BME280;15377;48.540;9.268;2023-04-09T09:49:00;98195.63;;;11.93;90.31
5284;BME280;15377;48.540;9.268;2023-04-09T09:51:26;98182.59;;;11.84;90.73
5284;BME280;15377;48.540;9.268;2023-04-09T09:53:54;98197.41;;;12.14;88.46
5284;BME280;15377;48.540;9.268;2023-04-09T09:56:23;98190.88;;;12.53;86.98
5284;BME280;15377;48.540;9.268;2023-04-09T09:59:01;98183.53;;;13.76;81.65
5284;BME280;15377;48.540;9.268;2023-04-09T10:01:31;98170.56;;;16.23;64.31
5284;BME280;15377;48.540;9.268;2023-04-09T10:03:59;98183.88;;;18.18;58.46
5284;BME280;15377;48.540;9.268;2023-04-09T10:06:25;98186.94;;;17.45;49.09
5284;BME280;15377;48.540;9.268;2023-04-09T10:08:55;98176.38;;;15.54;49.91
5284;BME280;15377;48.540;9.268;2023-04-09T10:11:22;98186.03;;;14.27;55.43
5284;BME280;15377;48.540;9.268;2023-04-09T10:13:50;98196.84;;;13.87;58.76
5284;BME280;15377;48.540;9.268;2023-04-09T10:16:17;98190.66;;;13.54;59.74
5284;BME280;15377;48.540;9.268;2023-04-09T10:18:43;98187.75;;;13.34;61.67
5284;BME280;15377;48.540;9.268;2023-04-09T10:21:19;98190.09;;;13.50;64.21
5284;BME280;15377;48.540;9.268;2023-04-09T10:23:48;98188.06;;;13.74;63.46
5284;BME280;15377;48.540;9.268;2023-04-09T10:26:17;98190.84;;;13.27;62.54
5284;BME280;15377;48.540;9.268;2023-04-09T10:28:42;98183.09;;;13.16;62.02
5284;BME280;15377;48.540;9.268;2023-04-09T10:31:08;98190.31;;;13.14;62.82
5284;BME280;15377;48.540;9.268;2023-04-09T10:33:36;98193.00;;;13.23;63.33
5284;BME280;15377;48.540;9.268;2023-04-09T10:36:04;98189.19;;;13.20;62.82
5284;BME280;15377;48.540;9.268;2023-04-09T10:38:34;98181.25;;;13.13;63.41
5284;BME280;15377;48.540;9.268;2023-04-09T10:41:14;98184.91;;;13.43;63.66
5284;BME280;15377;48.540;9.268;2023-04-09T10:43:41;98179.06;;;13.64;62.38
5284;BME280;15377;48.540;9.268;2023-04-09T10:46:24;98182.91;;;13.81;62.65
5284;BME280;15377;48.540;9.268;2023-04-09T10:49:17;98183.66;;;14.34;57.81
5284;BME280;15377;48.540;9.268;2023-04-09T10:57:13;98171.88;;;16.53;53.27
5284;BME280;15377;48.540;9.268;2023-04-09T10:59:49;98171.06;;;17.62;47.73
5284;BME280;15377;48.540;9.268;2023-04-09T11:07:29;98162.94;;;17.53;47.70
5284;BME280;15377;48.540;9.268;2023-04-09T11:09:56;98163.25;;;17.24;47.20
5284;BME280;15377;48.540;9.268;2023-04-09T11:12:21;98152.53;;;16.64;48.98
5284;BME280;15377;48.540;9.268;2023-04-09T11:14:47;98161.25;;;16.26;48.90
5284;BME280;15377;48.540;9.268;2023-04-09T11:17:12;98154.78;;;16.09;50.65
5284;BME280;15377;48.540;9.268;2023-04-09T11:19:37;98153.31;;;15.68;50.16
5284;BME280;15377;48.540;9.268;2023-04-09T11:22:04;98156.84;;;16.14;49.06
5284;BME280;15377;48.540;9.268;2023-04-09T11:24:40;98146.16;;;16.33;47.13
5284;BME280;15377;48.540;9.268;2023-04-09T11:27:06;98146.50;;;15.89;50.57
5284;BME280;15377;48.540;9.268;2023-04-09T11:29:33;98144.47;;;16.15;49.08
5284;BME280;15377;48.540;9.268;2023-04-09T11:31:59;98145.50;;;15.67;49.45
5284;BME280;15377;48.540;9.268;2023-04-09T11:34:27;98146.00;;;15.45;49.00
5284;BME280;15377;48.540;9.268;2023-04-09T11:36:52;98144.13;;;15.37;50.52
5284;BME280;15377;48.540;9.268;2023-04-09T11:39:18;98135.34;;;15.38;48.67
5284;BME280;15377;48.540;9.268;2023-04-09T11:41:43;98140.53;;;15.31;50.94
5284;BME280;15377;48.540;9.268;2023-04-09T11:44:08;98138.38;;;15.40;48.83
5284;BME280;15377;48.540;9.268;2023-04-09T11:46:34;98145.97;;;15.25;51.25
5284;BME280;15377;48.540;9.268;2023-04-09T11:49:00;98141.97;;;15.06;51.10
5284;BME280;15377;48.540;9.268;2023-04-09T11:51:26;98142.13;;;14.83;53.06
5284;BME280;15377;48.540;9.268;2023-04-09T11:53:52;98139.16;;;14.86;52.60
5284;BME280;15377;48.540;9.268;2023-04-09T11:56:18;98122.47;;;14.67;52.46
5284;BME280;15377;48.540;9.268;2023-04-09T11:58:44;98137.03;;;14.81;53.33
5284;BME280;15377;48.540;9.268;2023-04-09T12:01:11;98146.72;;;14.72;52.84
5284;BME280;15377;48.540;9.268;2023-04-09T12:03:36;98129.84;;;14.55;51.97
5284;BME280;15377;48.540;9.268;2023-04-09T12:06:04;98139.78;;;14.62;52.24
5284;BME280;15377;48.540;9.268;2023-04-09T12:08:30;98144.34;;;14.65;52.80
5284;BME280;15377;48.540;9.268;2023-04-09T12:11:14;98133.28;;;14.65;52.03
5284;BME280;15377;48.540;9.268;2023-04-09T12:13:40;98132.59;;;14.70;50.37
5284;BME280;15377;48.540;9.268;2023-04-09T12:16:08;98138.47;;;14.43;50.33
5284;BME280;15377;48.540;9.268;2023-04-09T12:18:35;98134.25;;;14.04;52.67
5284;BME280;15377;48.540;9.268;2023-04-09T12:21:01;98130.25;;;13.90;52.41
5284;BME280;15377;48.540;9.268;2023-04-09T12:23:27;98126.50;;;13.79;53.95
5284;BME280;15377;48.540;9.268;2023-04-09T12:25:52;98122.44;;;14.03;53.76
5284;BME280;15377;48.540;9.268;2023-04-09T12:28:19;98120.16;;;14.31;54.98
5284;BME280;15377;48.540;9.268;2023-04-09T12:30:45;98125.00;;;14.50;50.14
5284;BME280;15377;48.540;9.268;2023-04-09T12:33:10;98122.06;;;14.73;50.54
5284;BME280;15377;48.540;9.268;2023-04-09T12:35:35;98131.69;;;14.92;49.41
5284;BME280;15377;48.540;9.268;2023-04-09T12:38:02;98120.53;;;14.87;51.31
5284;BME280;15377;48.540;9.268;2023-04-09T12:40:29;98113.59;;;14.63;51.66
5284;BME280;15377;48.540;9.268;2023-04-09T12:42:54;98120.81;;;14.74;51.41
5284;BME280;15377;48.540;9.268;2023-04-09T12:45:20;98118.28;;;14.91;52.96
5284;BME280;15377;48.540;9.268;2023-04-09T12:47:46;98113.94;;;14.84;50.50
5284;BME280;15377;48.540;9.268;2023-04-09T12:50:13;98104.19;;;14.74;50.65
5284;BME280;15377;48.540;9.268;2023-04-09T12:52:39;98106.81;;;14.98;49.60
5284;BME280;15377;48.540;9.268;2023-04-09T12:55:05;98096.28;;;15.22;49.27
5284;BME280;15377;48.540;9.268;2023-04-09T12:57:31;98085.03;;;15.76;51.24
5284;BME280;15377;48.540;9.268;2023-04-09T12:59:56;98090.38;;;16.36;49.88
5284;BME280;15377;48.540;9.268;2023-04-09T13:02:22;98088.03;;;15.98;48.54
5284;BME280;15377;48.540;9.268;2023-04-09T13:04:47;98073.19;;;16.32;48.31
5284;BME280;15377;48.540;9.268;2023-04-09T13:07:14;98086.91;;;16.41;48.52
5284;BME280;15377;48.540;9.268;2023-04-09T13:09:41;98079.88;;;15.89;47.92
5284;BME280;15377;48.540;9.268;2023-04-09T13:12:07;98068.31;;;15.45;48.33
5284;BME280;15377;48.540;9.268;2023-04-09T13:14:32;98080.38;;;15.62;50.51
5284;BME280;15377;48.540;9.268;2023-04-09T13:16:58;98081.78;;;16.34;49.18
5284;BME280;15377;48.540;9.268;2023-04-09T13:19:23;98074.59;;;16.22;48.02
5284;BME280;15377;48.540;9.268;2023-04-09T13:21:49;98075.50;;;16.08;47.86
5284;BME280;15377;48.540;9.268;2023-04-09T13:24:14;98068.88;;;16.31;47.72
5284;BME280;15377;48.540;9.268;2023-04-09T13:26:39;98067.78;;;16.23;47.72